Alma — P3MF8 — position and weather

sailwx.info

Track history (hours):
 
Tides and Currents Weather Stations Pressure Air Temp Water Temp Dewpoint Dewpoint Depression Visibility Wind Speed Wind Dir Waves Ship Positions

Alma

Last reported at 2017-Oct-18 21:55 UTC. Time now 2017-Oct-19 03:54 UTC.
Position N 53°27' E 006°49'.

Length 98 m; draft 5.2 m.

Type: Cargo ship. MMSI: 212856000.

Date/timePositionNaut miles runAvg speedWind from/ knotsBaromVisibWave heightAir tempDewpointWater temp
2017-Oct-18 21:55N 53°27' E 006°49'0 0.0
2017-Oct-18 21:19N 53°27' E 006°49'0 0.0
2017-Oct-18 20:55N 53°27' E 006°49'0 0.0
2017-Oct-18 20:13N 53°27' E 006°49'0 0.0
2017-Oct-18 19:04N 53°27' E 006°49'0 0.0
2017-Oct-18 18:55N 53°27' E 006°49'0 0.1
2017-Oct-18 13:09N 53°27' E 006°50'3 7.7
2017-Oct-18 12:48N 53°30' E 006°49'412.0
2017-Oct-18 12:29N 53°32' E 006°44'250 7.5
2017-Oct-17 03:08N 57°41' E 006°16'312.5
2017-Oct-17 02:55N 57°44' E 006°15'512.4
2017-Oct-17 02:30N 57°49' E 006°12'612.5
2017-Oct-17 02:00N 57°55' E 006°10'612.3
2017-Oct-17 01:30N 58°01' E 006°07'611.9
2017-Oct-17 01:00N 58°07' E 006°05'611.8
2017-Oct-17 00:30N 58°12' E 006°04'611.5
2017-Oct-17 00:01N 58°18' E 006°02'611.1
2017-Oct-16 23:30N 58°24' E 006°00'3 5.9
2017-Oct-16 23:01N 58°26' E 005°59'0 0.0
2017-Oct-16 22:30N 58°26' E 005°59'0 0.0
2017-Oct-16 22:00N 58°26' E 005°59'0 0.0
2017-Oct-16 21:30N 58°26' E 005°59'0 0.0
2017-Oct-16 21:00N 58°26' E 005°59'0 0.0
2017-Oct-16 20:30N 58°26' E 005°59'0 0.0
2017-Oct-16 20:00N 58°26' E 005°59'0 0.0
2017-Oct-16 19:30N 58°26' E 005°59'0 0.0
2017-Oct-16 19:00N 58°26' E 005°59'0 0.0
2017-Oct-16 18:30N 58°26' E 005°59'0 0.0
2017-Oct-16 18:00N 58°26' E 005°59'0 0.0
2017-Oct-16 17:30N 58°26' E 005°59'0 0.0
2017-Oct-16 17:00N 58°26' E 005°59'0 0.0
2017-Oct-16 16:30N 58°26' E 005°59'0 0.0
2017-Oct-16 16:00N 58°26' E 005°59'0 0.0
2017-Oct-16 15:30N 58°26' E 005°59'0 0.1
2017-Oct-16 15:00N 58°26' E 005°59'4 3.6
2017-Oct-16 14:00N 58°24' E 005°53'612.8
2017-Oct-16 13:30N 58°28' E 005°43'713.7
2017-Oct-16 13:00N 58°32' E 005°33'713.4
2017-Oct-16 12:30N 58°37' E 005°25'713.3
2017-Oct-16 12:00N 58°43' E 005°17'713.8
2017-Oct-16 11:31N 58°47' E 005°08'714.3
2017-Oct-16 11:00N 58°53' E 004°58'1014.1
2017-Oct-16 10:17N 59°02' E 004°49'234 8.4
2017-Oct-15 06:31N 62°54' E 005°50'0 7.5
2017-Oct-15 06:30N 62°54' E 005°50'4 7.5
2017-Oct-15 06:00N 62°56' E 005°58'4 7.2
2017-Oct-15 05:30N 62°57' E 006°05'4 7.3
2017-Oct-15 05:00N 62°59' E 006°12'3 6.7
2017-Oct-15 04:30N 63°00' E 006°19'3 6.5
2017-Oct-15 04:00N 63°02' E 006°25'3 6.1
2017-Oct-15 03:30N 63°03' E 006°31'3 6.2
2017-Oct-15 03:00N 63°05' E 006°36'3 5.9
2017-Oct-15 02:30N 63°07' E 006°41'3 6.2
2017-Oct-15 02:00N 63°09' E 006°47'3 5.8
2017-Oct-15 01:30N 63°10' E 006°52'3 5.7
2017-Oct-15 01:00N 63°12' E 006°58'3 5.5
2017-Oct-15 00:30N 63°13' E 007°03'2 4.9
2017-Oct-15 00:00N 63°13' E 007°09'3 5.1
2017-Oct-14 23:30N 63°14' E 007°14'3 5.4
2017-Oct-14 23:00N 63°15' E 007°20'3 6.6
2017-Oct-14 22:30N 63°15' E 007°27'3 6.9
2017-Oct-14 22:00N 63°14' E 007°35'5 9.5
2017-Oct-14 21:30N 63°14' E 007°45'4 8.7
2017-Oct-14 21:01N 63°13' E 007°55'611.0
2017-Oct-14 20:30N 63°16' E 008°06'612.7
2017-Oct-14 20:00N 63°19' E 008°17'713.1
2017-Oct-14 19:30N 63°24' E 008°29'713.3
2017-Oct-14 19:00N 63°26' E 008°43'713.7
2017-Oct-14 18:30N 63°28' E 008°57'713.3
2017-Oct-14 18:00N 63°31' E 009°10'713.0
2017-Oct-14 17:30N 63°34' E 009°23'612.8
2017-Oct-14 17:00N 63°40' E 009°29'5 9.6
2017-Oct-14 16:31N 63°44' E 009°35'0 0.5
2017-Oct-14 15:59N 63°44' E 009°36'0 0.0
2017-Oct-14 15:29N 63°44' E 009°36'0 0.0
2017-Oct-14 14:59N 63°44' E 009°36'0 0.0
2017-Oct-14 14:29N 63°44' E 009°36'0 0.0
2017-Oct-14 13:59N 63°44' E 009°36'0 0.0
2017-Oct-14 13:26N 63°44' E 009°36'0 0.0
2017-Oct-14 12:59N 63°44' E 009°36'0 0.0
2017-Oct-14 12:29N 63°44' E 009°36'0 0.0
2017-Oct-14 11:59N 63°44' E 009°36'0 0.0
2017-Oct-14 11:29N 63°44' E 009°36'0 0.0
2017-Oct-14 10:59N 63°44' E 009°36'0 0.0
2017-Oct-14 10:29N 63°44' E 009°36'0 0.0
2017-Oct-14 09:59N 63°44' E 009°36'0 0.0
2017-Oct-14 09:29N 63°44' E 009°36'0 0.0
2017-Oct-14 08:59N 63°44' E 009°36'0 0.0
2017-Oct-14 08:29N 63°44' E 009°36'0 0.0
2017-Oct-14 07:59N 63°44' E 009°36'0 0.0
2017-Oct-14 07:29N 63°44' E 009°36'0 0.0
2017-Oct-14 06:59N 63°44' E 009°36'0 0.0
2017-Oct-14 06:29N 63°44' E 009°36'0 0.0
2017-Oct-14 05:59N 63°44' E 009°36'0 0.0
2017-Oct-14 05:29N 63°44' E 009°36'0 0.0
2017-Oct-14 04:59N 63°44' E 009°36'0 0.0
2017-Oct-14 04:29N 63°44' E 009°36'0 0.0
2017-Oct-14 03:59N 63°44' E 009°36'0 0.0
2017-Oct-14 03:29N 63°44' E 009°36'0 0.0
2017-Oct-14 02:59N 63°44' E 009°36'0 0.0
2017-Oct-14 02:29N 63°44' E 009°36'0 0.0
2017-Oct-14 01:59N 63°44' E 009°36'0 0.0
2017-Oct-14 01:29N 63°44' E 009°36'0 0.0
2017-Oct-14 00:59N 63°44' E 009°36'0 0.0
2017-Oct-14 00:29N 63°44' E 009°36'0 0.0
2017-Oct-13 23:59N 63°44' E 009°36'0 0.0
2017-Oct-13 23:29N 63°44' E 009°36'0 0.0
2017-Oct-13 23:00N 63°44' E 009°36'0 0.2
2017-Oct-13 22:30N 63°44' E 009°36'2 3.0
2017-Oct-13 21:59N 63°45' E 009°33'0 0.7
2017-Oct-13 21:30N 63°45' E 009°32'2 3.3
2017-Oct-13 21:00N 63°45' E 009°36'1 2.9
2017-Oct-13 20:30N 63°45' E 009°33'0 0.9
2017-Oct-13 20:01N 63°45' E 009°32'2 3.6
2017-Oct-13 19:30N 63°45' E 009°36'1 2.4
2017-Oct-13 19:00N 63°45' E 009°33'1 2.7
2017-Oct-13 18:30N 63°45' E 009°30'1 2.4
2017-Oct-13 18:00N 63°45' E 009°28'1 1.8
2017-Oct-13 17:30N 63°45' E 009°30'1 2.3
2017-Oct-13 17:00N 63°45' E 009°32'1 1.3
2017-Oct-13 16:30N 63°45' E 009°33'1 2.7
2017-Oct-13 16:00N 63°44' E 009°36'0 0.0
2017-Oct-13 15:30N 63°44' E 009°36'0 0.0
2017-Oct-13 15:00N 63°44' E 009°36'0 0.0
2017-Oct-13 14:30N 63°44' E 009°36'0 0.0
2017-Oct-13 14:00N 63°44' E 009°36'0 0.0
2017-Oct-13 13:30N 63°44' E 009°36'0 0.0
2017-Oct-13 13:00N 63°44' E 009°36'0 0.0
2017-Oct-13 12:27N 63°44' E 009°36'0 0.0
2017-Oct-13 12:00N 63°44' E 009°36'0 0.0
2017-Oct-13 11:24N 63°44' E 009°36'0 0.0
2017-Oct-13 11:00N 63°44' E 009°36'0 0.0
2017-Oct-13 10:30N 63°44' E 009°36'0 0.0
2017-Oct-13 10:00N 63°44' E 009°36'0 0.0
2017-Oct-13 09:30N 63°44' E 009°36'0 0.0
2017-Oct-13 09:00N 63°44' E 009°36'0 0.0
2017-Oct-13 08:27N 63°44' E 009°36'0 0.0
2017-Oct-13 08:00N 63°44' E 009°36'0 0.0
2017-Oct-13 07:30N 63°44' E 009°36'0 0.0
2017-Oct-13 06:57N 63°44' E 009°36'0 0.0
2017-Oct-13 06:30N 63°44' E 009°36'0 0.0
2017-Oct-13 05:57N 63°44' E 009°36'0 0.0
2017-Oct-13 05:27N 63°44' E 009°36'0 0.0
2017-Oct-13 04:57N 63°44' E 009°36'0 0.0
2017-Oct-13 04:27N 63°44' E 009°36'0 0.0
2017-Oct-13 03:57N 63°44' E 009°36'0 0.0
2017-Oct-13 03:30N 63°44' E 009°36'0 0.0
2017-Oct-13 02:57N 63°44' E 009°36'0 0.0
2017-Oct-13 02:27N 63°44' E 009°36'0 0.0
2017-Oct-13 01:57N 63°44' E 009°36'0 0.0
2017-Oct-13 01:27N 63°44' E 009°36'0 0.0
2017-Oct-13 00:57N 63°44' E 009°36'0 0.0
2017-Oct-13 00:30N 63°44' E 009°36'0 0.0
2017-Oct-12 23:57N 63°44' E 009°36'0 0.0
2017-Oct-12 23:30N 63°44' E 009°36'0 0.0
2017-Oct-12 22:57N 63°44' E 009°36'0 0.0
2017-Oct-12 22:30N 63°44' E 009°36'0 0.0
2017-Oct-12 21:57N 63°44' E 009°36'0 0.0
2017-Oct-12 21:27N 63°44' E 009°36'0 0.0
2017-Oct-12 20:57N 63°44' E 009°36'0 0.0
2017-Oct-12 20:30N 63°44' E 009°36'0 0.0
2017-Oct-12 19:57N 63°44' E 009°36'0 0.0
2017-Oct-12 19:30N 63°44' E 009°36'0 0.0
2017-Oct-12 18:57N 63°44' E 009°36'0 0.0
2017-Oct-12 18:27N 63°44' E 009°36'0 0.0
2017-Oct-12 17:57N 63°44' E 009°36'0 0.0
2017-Oct-12 17:27N 63°44' E 009°36'0 0.0
2017-Oct-12 16:57N 63°44' E 009°36'0 0.0
2017-Oct-12 16:27N 63°44' E 009°36'0 0.0
2017-Oct-12 16:00N 63°44' E 009°36'0 0.0
2017-Oct-12 15:30N 63°44' E 009°36'0 0.0
2017-Oct-12 15:00N 63°44' E 009°36'0 0.0
2017-Oct-12 14:30N 63°44' E 009°36'0 0.0
2017-Oct-12 14:00N 63°44' E 009°36'0 0.0
2017-Oct-12 13:30N 63°44' E 009°36'0 0.0
2017-Oct-12 13:00N 63°44' E 009°36'0 0.0
2017-Oct-12 12:30N 63°44' E 009°36'0 0.0
2017-Oct-12 12:00N 63°44' E 009°36'0 0.0
2017-Oct-12 11:30N 63°44' E 009°36'0 0.0
2017-Oct-12 11:00N 63°44' E 009°36'0 0.0
2017-Oct-12 10:30N 63°44' E 009°36'0 0.0
2017-Oct-12 10:00N 63°44' E 009°36'0 0.0
2017-Oct-12 09:31N 63°44' E 009°36'2 3.4
2017-Oct-12 09:00N 63°45' E 009°33'1 1.4
2017-Oct-12 08:30N 63°45' E 009°34'1 2.2
2017-Oct-12 08:00N 63°45' E 009°32'1 2.4
2017-Oct-12 07:31N 63°45' E 009°29'1 2.0
2017-Oct-12 06:59N 63°45' E 009°27'1 1.8
2017-Oct-12 06:30N 63°45' E 009°25'0 0.9
2017-Oct-12 06:00N 63°45' E 009°26'1 2.4
2017-Oct-12 05:30N 63°45' E 009°29'1 1.7
2017-Oct-12 05:00N 63°45' E 009°30'0 1.0
2017-Oct-12 04:30N 63°45' E 009°32'1 2.0
2017-Oct-12 04:01N 63°45' E 009°33'1 2.6
2017-Oct-12 03:29N 63°44' E 009°36'0 0.0
2017-Oct-12 02:59N 63°44' E 009°36'0 0.0
2017-Oct-12 02:29N 63°44' E 009°36'0 0.0
2017-Oct-12 01:59N 63°44' E 009°36'0 0.0
2017-Oct-12 01:29N 63°44' E 009°36'0 0.0
2017-Oct-12 00:59N 63°44' E 009°36'0 0.0
2017-Oct-12 00:29N 63°44' E 009°36'0 0.0
2017-Oct-11 23:59N 63°44' E 009°36'0 0.0
2017-Oct-11 23:29N 63°44' E 009°36'0 0.0
2017-Oct-11 22:59N 63°44' E 009°36'0 0.0
2017-Oct-11 22:29N 63°44' E 009°36'0 0.0
2017-Oct-11 21:59N 63°44' E 009°36'0 0.0
2017-Oct-11 21:29N 63°44' E 009°36'0 0.0
2017-Oct-11 20:59N 63°44' E 009°36'0 0.0
2017-Oct-11 20:29N 63°44' E 009°36'0 0.0
2017-Oct-11 19:59N 63°44' E 009°36'0 0.0
2017-Oct-11 19:29N 63°44' E 009°36'0 0.0
2017-Oct-11 18:59N 63°44' E 009°36'0 0.0
2017-Oct-11 18:29N 63°44' E 009°36'0 0.0
2017-Oct-11 17:59N 63°44' E 009°36'0 0.0
2017-Oct-11 17:29N 63°44' E 009°36'0 0.0
2017-Oct-11 16:59N 63°44' E 009°36'60 3.5
2017-Oct-11 00:00N 63°14' E 007°39'5 9.2
2017-Oct-10 23:30N 63°15' E 007°29'611.8
2017-Oct-10 23:00N 63°14' E 007°16'612.5
2017-Oct-10 22:30N 63°13' E 007°02'612.4
2017-Oct-10 22:00N 63°12' E 006°48'27111.1
2017-Oct-09 21:33N 58°49' E 004°32'113.9
2017-Oct-09 21:29N 58°49' E 004°33'713.8
2017-Oct-09 20:57N 58°43' E 004°43'614.1
2017-Oct-09 20:30N 58°39' E 004°52'714.1
2017-Oct-09 20:00N 58°34' E 005°01'714.0
2017-Oct-09 19:29N 58°29' E 005°11'713.5
2017-Oct-09 19:00N 58°24' E 005°20'814.7
2017-Oct-09 18:29N 58°19' E 005°30'714.8
2017-Oct-09 18:00N 58°14' E 005°41'714.2
2017-Oct-09 17:30N 58°10' E 005°51'714.6
2017-Oct-09 17:00N 58°05' E 006°01'815.4
2017-Oct-09 16:30N 58°00' E 006°13'816.2
2017-Oct-09 16:00N 57°55' E 006°24'816.8
2017-Oct-09 15:30N 57°50' E 006°36'815.8
2017-Oct-09 15:00N 57°48' E 006°51'916.9
2017-Oct-09 14:30N 57°48' E 007°07'917.5
2017-Oct-09 13:59N 57°48' E 007°24'817.3
2017-Oct-09 13:30N 57°48' E 007°39'816.4
2017-Oct-09 13:00N 57°48' E 007°55'815.5
2017-Oct-09 12:30N 57°48' E 008°10'6915.1
2017-Oct-09 07:54N 57°47' E 010°20'614.9
2017-Oct-09 07:30N 57°47' E 010°31'715.0
2017-Oct-09 07:00N 57°47' E 010°45'714.3
2017-Oct-09 06:30N 57°43' E 010°55'714.6
2017-Oct-09 06:00N 57°38' E 011°06'714.7
2017-Oct-09 05:30N 57°33' E 011°16'714.5
2017-Oct-09 05:00N 57°29' E 011°26'714.3
2017-Oct-09 04:30N 57°22' E 011°31'714.6
2017-Oct-09 04:00N 57°15' E 011°35'714.9
2017-Oct-09 03:30N 57°08' E 011°40'5714.9
2017-Oct-08 23:41N 56°15' E 012°18'314.5
2017-Oct-08 23:30N 56°13' E 012°21'714.5
2017-Oct-08 23:00N 56°08' E 012°31'713.6
2017-Oct-08 22:30N 56°04' E 012°39'611.7
2017-Oct-08 22:00N 55°58' E 012°43'  
Track history (hours):
 
Tides and Currents Weather Stations Pressure Air Temp Water Temp Dewpoint Dewpoint Depression Visibility Wind Speed Wind Dir Waves Ship Positions

Alma

Last reported at 2017-Oct-18 21:55 UTC. Time now 2017-Oct-19 03:54 UTC.
Position N 53°27' E 006°49'.

Length 98 m; draft 5.2 m.

Type: Cargo ship. MMSI: 212856000.

Date/timePositionNaut miles runAvg speedWind from/ knotsBaromVisibWave heightAir tempDewpointWater temp
2017-Oct-18 21:55N 53°27' E 006°49'0 0.0
2017-Oct-18 21:19N 53°27' E 006°49'0 0.0
2017-Oct-18 20:55N 53°27' E 006°49'0 0.0
2017-Oct-18 20:13N 53°27' E 006°49'0 0.0
2017-Oct-18 19:04N 53°27' E 006°49'0 0.0
2017-Oct-18 18:55N 53°27' E 006°49'0 0.1
2017-Oct-18 13:09N 53°27' E 006°50'3 7.7
2017-Oct-18 12:48N 53°30' E 006°49'412.0
2017-Oct-18 12:29N 53°32' E 006°44'250 7.5
2017-Oct-17 03:08N 57°41' E 006°16'312.5
2017-Oct-17 02:55N 57°44' E 006°15'512.4
2017-Oct-17 02:30N 57°49' E 006°12'612.5
2017-Oct-17 02:00N 57°55' E 006°10'612.3
2017-Oct-17 01:30N 58°01' E 006°07'611.9
2017-Oct-17 01:00N 58°07' E 006°05'611.8
2017-Oct-17 00:30N 58°12' E 006°04'611.5
2017-Oct-17 00:01N 58°18' E 006°02'611.1
2017-Oct-16 23:30N 58°24' E 006°00'3 5.9
2017-Oct-16 23:01N 58°26' E 005°59'0 0.0
2017-Oct-16 22:30N 58°26' E 005°59'0 0.0
2017-Oct-16 22:00N 58°26' E 005°59'0 0.0
2017-Oct-16 21:30N 58°26' E 005°59'0 0.0
2017-Oct-16 21:00N 58°26' E 005°59'0 0.0
2017-Oct-16 20:30N 58°26' E 005°59'0 0.0
2017-Oct-16 20:00N 58°26' E 005°59'0 0.0
2017-Oct-16 19:30N 58°26' E 005°59'0 0.0
2017-Oct-16 19:00N 58°26' E 005°59'0 0.0
2017-Oct-16 18:30N 58°26' E 005°59'0 0.0
2017-Oct-16 18:00N 58°26' E 005°59'0 0.0
2017-Oct-16 17:30N 58°26' E 005°59'0 0.0
2017-Oct-16 17:00N 58°26' E 005°59'0 0.0
2017-Oct-16 16:30N 58°26' E 005°59'0 0.0
2017-Oct-16 16:00N 58°26' E 005°59'0 0.0
2017-Oct-16 15:30N 58°26' E 005°59'0 0.1
2017-Oct-16 15:00N 58°26' E 005°59'4 3.6
2017-Oct-16 14:00N 58°24' E 005°53'612.8
2017-Oct-16 13:30N 58°28' E 005°43'713.7
2017-Oct-16 13:00N 58°32' E 005°33'713.4
2017-Oct-16 12:30N 58°37' E 005°25'713.3
2017-Oct-16 12:00N 58°43' E 005°17'713.8
2017-Oct-16 11:31N 58°47' E 005°08'714.3
2017-Oct-16 11:00N 58°53' E 004°58'1014.1
2017-Oct-16 10:17N 59°02' E 004°49'234 8.4
2017-Oct-15 06:31N 62°54' E 005°50'0 7.5
2017-Oct-15 06:30N 62°54' E 005°50'4 7.5
2017-Oct-15 06:00N 62°56' E 005°58'4 7.2
2017-Oct-15 05:30N 62°57' E 006°05'4 7.3
2017-Oct-15 05:00N 62°59' E 006°12'3 6.7
2017-Oct-15 04:30N 63°00' E 006°19'3 6.5
2017-Oct-15 04:00N 63°02' E 006°25'3 6.1
2017-Oct-15 03:30N 63°03' E 006°31'3 6.2
2017-Oct-15 03:00N 63°05' E 006°36'3 5.9
2017-Oct-15 02:30N 63°07' E 006°41'3 6.2
2017-Oct-15 02:00N 63°09' E 006°47'3 5.8
2017-Oct-15 01:30N 63°10' E 006°52'3 5.7
2017-Oct-15 01:00N 63°12' E 006°58'3 5.5
2017-Oct-15 00:30N 63°13' E 007°03'2 4.9
2017-Oct-15 00:00N 63°13' E 007°09'3 5.1
2017-Oct-14 23:30N 63°14' E 007°14'3 5.4
2017-Oct-14 23:00N 63°15' E 007°20'3 6.6
2017-Oct-14 22:30N 63°15' E 007°27'3 6.9
2017-Oct-14 22:00N 63°14' E 007°35'5 9.5
2017-Oct-14 21:30N 63°14' E 007°45'4 8.7
2017-Oct-14 21:01N 63°13' E 007°55'611.0
2017-Oct-14 20:30N 63°16' E 008°06'612.7
2017-Oct-14 20:00N 63°19' E 008°17'713.1
2017-Oct-14 19:30N 63°24' E 008°29'713.3
2017-Oct-14 19:00N 63°26' E 008°43'713.7
2017-Oct-14 18:30N 63°28' E 008°57'713.3
2017-Oct-14 18:00N 63°31' E 009°10'713.0
2017-Oct-14 17:30N 63°34' E 009°23'612.8
2017-Oct-14 17:00N 63°40' E 009°29'5 9.6
2017-Oct-14 16:31N 63°44' E 009°35'0 0.5
2017-Oct-14 15:59N 63°44' E 009°36'0 0.0
2017-Oct-14 15:29N 63°44' E 009°36'0 0.0
2017-Oct-14 14:59N 63°44' E 009°36'0 0.0
2017-Oct-14 14:29N 63°44' E 009°36'0 0.0
2017-Oct-14 13:59N 63°44' E 009°36'0 0.0
2017-Oct-14 13:26N 63°44' E 009°36'0 0.0
2017-Oct-14 12:59N 63°44' E 009°36'0 0.0
2017-Oct-14 12:29N 63°44' E 009°36'0 0.0
2017-Oct-14 11:59N 63°44' E 009°36'0 0.0
2017-Oct-14 11:29N 63°44' E 009°36'0 0.0
2017-Oct-14 10:59N 63°44' E 009°36'0 0.0
2017-Oct-14 10:29N 63°44' E 009°36'0 0.0
2017-Oct-14 09:59N 63°44' E 009°36'0 0.0
2017-Oct-14 09:29N 63°44' E 009°36'0 0.0
2017-Oct-14 08:59N 63°44' E 009°36'0 0.0
2017-Oct-14 08:29N 63°44' E 009°36'0 0.0
2017-Oct-14 07:59N 63°44' E 009°36'0 0.0
2017-Oct-14 07:29N 63°44' E 009°36'0 0.0
2017-Oct-14 06:59N 63°44' E 009°36'0 0.0
2017-Oct-14 06:29N 63°44' E 009°36'0 0.0
2017-Oct-14 05:59N 63°44' E 009°36'0 0.0
2017-Oct-14 05:29N 63°44' E 009°36'0 0.0
2017-Oct-14 04:59N 63°44' E 009°36'0 0.0
2017-Oct-14 04:29N 63°44' E 009°36'0 0.0
2017-Oct-14 03:59N 63°44' E 009°36'0 0.0
2017-Oct-14 03:29N 63°44' E 009°36'0 0.0
2017-Oct-14 02:59N 63°44' E 009°36'0 0.0
2017-Oct-14 02:29N 63°44' E 009°36'0 0.0
2017-Oct-14 01:59N 63°44' E 009°36'0 0.0
2017-Oct-14 01:29N 63°44' E 009°36'0 0.0
2017-Oct-14 00:59N 63°44' E 009°36'0 0.0
2017-Oct-14 00:29N 63°44' E 009°36'0 0.0
2017-Oct-13 23:59N 63°44' E 009°36'0 0.0
2017-Oct-13 23:29N 63°44' E 009°36'0 0.0
2017-Oct-13 23:00N 63°44' E 009°36'0 0.2
2017-Oct-13 22:30N 63°44' E 009°36'2 3.0
2017-Oct-13 21:59N 63°45' E 009°33'0 0.7
2017-Oct-13 21:30N 63°45' E 009°32'2 3.3
2017-Oct-13 21:00N 63°45' E 009°36'1 2.9
2017-Oct-13 20:30N 63°45' E 009°33'0 0.9
2017-Oct-13 20:01N 63°45' E 009°32'2 3.6
2017-Oct-13 19:30N 63°45' E 009°36'1 2.4
2017-Oct-13 19:00N 63°45' E 009°33'1 2.7
2017-Oct-13 18:30N 63°45' E 009°30'1 2.4
2017-Oct-13 18:00N 63°45' E 009°28'1 1.8
2017-Oct-13 17:30N 63°45' E 009°30'1 2.3
2017-Oct-13 17:00N 63°45' E 009°32'1 1.3
2017-Oct-13 16:30N 63°45' E 009°33'1 2.7
2017-Oct-13 16:00N 63°44' E 009°36'0 0.0
2017-Oct-13 15:30N 63°44' E 009°36'0 0.0
2017-Oct-13 15:00N 63°44' E 009°36'0 0.0
2017-Oct-13 14:30N 63°44' E 009°36'0 0.0
2017-Oct-13 14:00N 63°44' E 009°36'0 0.0
2017-Oct-13 13:30N 63°44' E 009°36'0 0.0
2017-Oct-13 13:00N 63°44' E 009°36'0 0.0
2017-Oct-13 12:27N 63°44' E 009°36'0 0.0
2017-Oct-13 12:00N 63°44' E 009°36'0 0.0
2017-Oct-13 11:24N 63°44' E 009°36'0 0.0
2017-Oct-13 11:00N 63°44' E 009°36'0 0.0
2017-Oct-13 10:30N 63°44' E 009°36'0 0.0
2017-Oct-13 10:00N 63°44' E 009°36'0 0.0
2017-Oct-13 09:30N 63°44' E 009°36'0 0.0
2017-Oct-13 09:00N 63°44' E 009°36'0 0.0
2017-Oct-13 08:27N 63°44' E 009°36'0 0.0
2017-Oct-13 08:00N 63°44' E 009°36'0 0.0
2017-Oct-13 07:30N 63°44' E 009°36'0 0.0
2017-Oct-13 06:57N 63°44' E 009°36'0 0.0
2017-Oct-13 06:30N 63°44' E 009°36'0 0.0
2017-Oct-13 05:57N 63°44' E 009°36'0 0.0
2017-Oct-13 05:27N 63°44' E 009°36'0 0.0
2017-Oct-13 04:57N 63°44' E 009°36'0 0.0
2017-Oct-13 04:27N 63°44' E 009°36'0 0.0
2017-Oct-13 03:57N 63°44' E 009°36'0 0.0
2017-Oct-13 03:30N 63°44' E 009°36'0 0.0
2017-Oct-13 02:57N 63°44' E 009°36'0 0.0
2017-Oct-13 02:27N 63°44' E 009°36'0 0.0
2017-Oct-13 01:57N 63°44' E 009°36'0 0.0
2017-Oct-13 01:27N 63°44' E 009°36'0 0.0
2017-Oct-13 00:57N 63°44' E 009°36'0 0.0
2017-Oct-13 00:30N 63°44' E 009°36'0 0.0
2017-Oct-12 23:57N 63°44' E 009°36'0 0.0
2017-Oct-12 23:30N 63°44' E 009°36'0 0.0
2017-Oct-12 22:57N 63°44' E 009°36'0 0.0
2017-Oct-12 22:30N 63°44' E 009°36'0 0.0
2017-Oct-12 21:57N 63°44' E 009°36'0 0.0
2017-Oct-12 21:27N 63°44' E 009°36'0 0.0
2017-Oct-12 20:57N 63°44' E 009°36'0 0.0
2017-Oct-12 20:30N 63°44' E 009°36'0 0.0
2017-Oct-12 19:57N 63°44' E 009°36'0 0.0
2017-Oct-12 19:30N 63°44' E 009°36'0 0.0
2017-Oct-12 18:57N 63°44' E 009°36'0 0.0
2017-Oct-12 18:27N 63°44' E 009°36'0 0.0
2017-Oct-12 17:57N 63°44' E 009°36'0 0.0
2017-Oct-12 17:27N 63°44' E 009°36'0 0.0
2017-Oct-12 16:57N 63°44' E 009°36'0 0.0
2017-Oct-12 16:27N 63°44' E 009°36'0 0.0
2017-Oct-12 16:00N 63°44' E 009°36'0 0.0
2017-Oct-12 15:30N 63°44' E 009°36'0 0.0
2017-Oct-12 15:00N 63°44' E 009°36'0 0.0
2017-Oct-12 14:30N 63°44' E 009°36'0 0.0
2017-Oct-12 14:00N 63°44' E 009°36'0 0.0
2017-Oct-12 13:30N 63°44' E 009°36'0 0.0
2017-Oct-12 13:00N 63°44' E 009°36'0 0.0
2017-Oct-12 12:30N 63°44' E 009°36'0 0.0
2017-Oct-12 12:00N 63°44' E 009°36'0 0.0
2017-Oct-12 11:30N 63°44' E 009°36'0 0.0
2017-Oct-12 11:00N 63°44' E 009°36'0 0.0
2017-Oct-12 10:30N 63°44' E 009°36'0 0.0
2017-Oct-12 10:00N 63°44' E 009°36'0 0.0
2017-Oct-12 09:31N 63°44' E 009°36'2 3.4
2017-Oct-12 09:00N 63°45' E 009°33'1 1.4
2017-Oct-12 08:30N 63°45' E 009°34'1 2.2
2017-Oct-12 08:00N 63°45' E 009°32'1 2.4
2017-Oct-12 07:31N 63°45' E 009°29'1 2.0
2017-Oct-12 06:59N 63°45' E 009°27'1 1.8
2017-Oct-12 06:30N 63°45' E 009°25'0 0.9
2017-Oct-12 06:00N 63°45' E 009°26'1 2.4
2017-Oct-12 05:30N 63°45' E 009°29'1 1.7
2017-Oct-12 05:00N 63°45' E 009°30'0 1.0
2017-Oct-12 04:30N 63°45' E 009°32'1 2.0
2017-Oct-12 04:01N 63°45' E 009°33'1 2.6
2017-Oct-12 03:29N 63°44' E 009°36'0 0.0
2017-Oct-12 02:59N 63°44' E 009°36'0 0.0
2017-Oct-12 02:29N 63°44' E 009°36'0 0.0
2017-Oct-12 01:59N 63°44' E 009°36'0 0.0
2017-Oct-12 01:29N 63°44' E 009°36'0 0.0
2017-Oct-12 00:59N 63°44' E 009°36'0 0.0
2017-Oct-12 00:29N 63°44' E 009°36'0 0.0
2017-Oct-11 23:59N 63°44' E 009°36'0 0.0
2017-Oct-11 23:29N 63°44' E 009°36'0 0.0
2017-Oct-11 22:59N 63°44' E 009°36'0 0.0
2017-Oct-11 22:29N 63°44' E 009°36'0 0.0
2017-Oct-11 21:59N 63°44' E 009°36'0 0.0
2017-Oct-11 21:29N 63°44' E 009°36'0 0.0
2017-Oct-11 20:59N 63°44' E 009°36'0 0.0
2017-Oct-11 20:29N 63°44' E 009°36'0 0.0
2017-Oct-11 19:59N 63°44' E 009°36'0 0.0
2017-Oct-11 19:29N 63°44' E 009°36'0 0.0
2017-Oct-11 18:59N 63°44' E 009°36'0 0.0
2017-Oct-11 18:29N 63°44' E 009°36'0 0.0
2017-Oct-11 17:59N 63°44' E 009°36'0 0.0
2017-Oct-11 17:29N 63°44' E 009°36'0 0.0
2017-Oct-11 16:59N 63°44' E 009°36'60 3.5
2017-Oct-11 00:00N 63°14' E 007°39'5 9.2
2017-Oct-10 23:30N 63°15' E 007°29'611.8
2017-Oct-10 23:00N 63°14' E 007°16'612.5
2017-Oct-10 22:30N 63°13' E 007°02'612.4
2017-Oct-10 22:00N 63°12' E 006°48'27111.1
2017-Oct-09 21:33N 58°49' E 004°32'113.9
2017-Oct-09 21:29N 58°49' E 004°33'713.8
2017-Oct-09 20:57N 58°43' E 004°43'614.1
2017-Oct-09 20:30N 58°39' E 004°52'714.1
2017-Oct-09 20:00N 58°34' E 005°01'714.0
2017-Oct-09 19:29N 58°29' E 005°11'713.5
2017-Oct-09 19:00N 58°24' E 005°20'814.7
2017-Oct-09 18:29N 58°19' E 005°30'714.8
2017-Oct-09 18:00N 58°14' E 005°41'714.2
2017-Oct-09 17:30N 58°10' E 005°51'714.6
2017-Oct-09 17:00N 58°05' E 006°01'815.4
2017-Oct-09 16:30N 58°00' E 006°13'816.2
2017-Oct-09 16:00N 57°55' E 006°24'816.8
2017-Oct-09 15:30N 57°50' E 006°36'815.8
2017-Oct-09 15:00N 57°48' E 006°51'916.9
2017-Oct-09 14:30N 57°48' E 007°07'917.5
2017-Oct-09 13:59N 57°48' E 007°24'817.3
2017-Oct-09 13:30N 57°48' E 007°39'816.4
2017-Oct-09 13:00N 57°48' E 007°55'815.5
2017-Oct-09 12:30N 57°48' E 008°10'6915.1
2017-Oct-09 07:54N 57°47' E 010°20'614.9
2017-Oct-09 07:30N 57°47' E 010°31'715.0
2017-Oct-09 07:00N 57°47' E 010°45'714.3
2017-Oct-09 06:30N 57°43' E 010°55'714.6
2017-Oct-09 06:00N 57°38' E 011°06'714.7
2017-Oct-09 05:30N 57°33' E 011°16'714.5
2017-Oct-09 05:00N 57°29' E 011°26'714.3
2017-Oct-09 04:30N 57°22' E 011°31'714.6
2017-Oct-09 04:00N 57°15' E 011°35'714.9
2017-Oct-09 03:30N 57°08' E 011°40'5714.9
2017-Oct-08 23:41N 56°15' E 012°18'314.5
2017-Oct-08 23:30N 56°13' E 012°21'714.5
2017-Oct-08 23:00N 56°08' E 012°31'713.6
2017-Oct-08 22:30N 56°04' E 012°39'611.7
2017-Oct-08 22:00N 55°58' E 012°43'  

Dump ship's entire track history